Terminal Aerodrome Forecast
Issued by NWS La Crosse, WI

Home | Current Version | Previous Version | Text Only | Print | Product List | Glossary On
Versions: 1 2 3 4 5 6 7 8 9 10 11 12 13 14 15 16 17 18 19 20 21 22 23 24 25 26 27 28 29 30 31 32 33 34 35 36 37 38 39 40 41 42 43 44 45 46 47 48
000
FTUS43 KARX 240520
TAFLSE
TAF
KLSE 240520Z 2406/2506 VRB03KT 6SM BR OVC015
     FM241200 VRB03KT 5SM BR OVC012
     FM241500 11005KT 6SM BR OVC015
     FM242300 10006KT 4SM -SN OVC010
     FM250200 09008KT 1SM -SN OVC008=

USA.gov is the U.S. government's official web portal to all federal, state and local government web resources and services.